createdAt,value
2022-07-29T00:00:15.422Z,101362.06
2022-07-29T00:02:42.363Z,101355.59
2022-07-29T00:05:11.018Z,101355.88
2022-07-29T00:07:37.840Z,101345.22
2022-07-29T00:10:05.515Z,101354.47
2022-07-29T00:12:32.292Z,101344.66
2022-07-29T00:14:59.174Z,101345.81
2022-07-29T00:17:26.239Z,101345.97
2022-07-29T00:19:53.238Z,101344.13
2022-07-29T00:22:21.218Z,101345.81
2022-07-29T00:24:51.155Z,101355.06
2022-07-29T00:27:19.066Z,101345.25
2022-07-29T00:29:46.264Z,101347.97
2022-07-29T00:32:13.295Z,101341.66
2022-07-29T00:34:58.557Z,101337.19
2022-07-29T00:37:26.089Z,101335.47
2022-07-29T00:39:52.924Z,101335.47
2022-07-29T00:42:19.791Z,101325.53
2022-07-29T00:44:46.647Z,101329.56
2022-07-29T00:47:14.042Z,101336.03
2022-07-29T00:49:43.341Z,101338.75
2022-07-29T00:52:12.393Z,101338.03
2022-07-29T00:54:44.438Z,101337.47
2022-07-29T00:57:13.184Z,101340.91
2022-07-29T00:59:40.576Z,101342.94
2022-07-29T01:02:07.726Z,101344.38
2022-07-29T01:04:34.969Z,101343.75
2022-07-29T01:07:06.176Z,101357.81
2022-07-29T01:09:45.942Z,101353.53
2022-07-29T01:12:29.592Z,101367.19
2022-07-29T01:14:57.428Z,101369.91
2022-07-29T01:17:33.594Z,101385.88
2022-07-29T01:20:31.346Z,101391.53
2022-07-29T01:23:24.676Z,101399.91
2022-07-29T01:26:28.360Z,101395.75
2022-07-29T01:29:28.982Z,101377.44
2022-07-29T01:32:27.680Z,101382.00
2022-07-29T01:35:22.014Z,101390.69
2022-07-29T01:38:06.331Z,101369.19
2022-07-29T01:40:52.253Z,101362.72
2022-07-29T01:43:28.448Z,101360.81
2022-07-29T01:46:04.037Z,101353.19
2022-07-29T01:49:07.061Z,101345.00
2022-07-29T01:51:47.443Z,101334.66
2022-07-29T01:54:36.386Z,101308.03
2022-07-29T01:57:07.793Z,101303.28
2022-07-29T01:59:38.213Z,101299.66
2022-07-29T02:02:09.662Z,101291.28
2022-07-29T02:04:38.856Z,101292.72
2022-07-29T02:07:10.927Z,101291.66
2022-07-29T02:09:40.517Z,101282.16
2022-07-29T02:12:09.115Z,101282.94
2022-07-29T02:14:44.352Z,101274.47
2022-07-29T02:17:14.436Z,101268.56
2022-07-29T02:19:45.674Z,101278.06
2022-07-29T02:22:14.685Z,101276.16
2022-07-29T02:24:43.905Z,101265.06
2022-07-29T02:27:12.625Z,101268.25
2022-07-29T02:29:41.663Z,101261.59
2022-07-29T02:32:12.130Z,101264.72
2022-07-29T02:34:42.273Z,101271.25
2022-07-29T02:37:12.237Z,101271.53
2022-07-29T02:39:43.231Z,101267.19
2022-07-29T02:42:16.579Z,101265.34
2022-07-29T02:44:43.810Z,101257.97
2022-07-29T02:47:41.300Z,101254.75
2022-07-29T02:50:17.153Z,101255.38
2022-07-29T02:53:10.075Z,101248.56
2022-07-29T02:55:46.714Z,101250.53
2022-07-29T02:58:29.271Z,101247.09
2022-07-29T03:01:04.135Z,101241.91
2022-07-29T03:03:38.685Z,101242.16
2022-07-29T03:06:09.438Z,101242.91
2022-07-29T03:08:58.680Z,101252.78
2022-07-29T03:11:42.499Z,101250.06
2022-07-29T03:14:14.865Z,101250.81
2022-07-29T03:16:42.966Z,101246.34
2022-07-29T03:19:10.147Z,101249.91
2022-07-29T03:21:36.951Z,101251.78
2022-07-29T03:24:09.775Z,101255.25
2022-07-29T03:26:37.261Z,101257.72
2022-07-29T03:29:04.157Z,101253.75
2022-07-29T03:31:31.002Z,101265.25
2022-07-29T03:33:58.474Z,101262.41
2022-07-29T03:36:25.793Z,101254.97
2022-07-29T03:38:53.678Z,101253.00
2022-07-29T03:41:23.790Z,101261.03
2022-07-29T03:43:52.848Z,101260.19
2022-07-29T03:46:25.020Z,101258.19
2022-07-29T03:48:57.556Z,101266.25
2022-07-29T03:51:33.372Z,101270.78
2022-07-29T03:54:09.878Z,101267.94
2022-07-29T03:56:43.649Z,101272.53
2022-07-29T03:59:13.735Z,101271.69
2022-07-29T04:01:42.964Z,101276.22
2022-07-29T04:04:09.952Z,101280.56
2022-07-29T04:06:46.255Z,101281.69
2022-07-29T04:09:15.810Z,101282.91
2022-07-29T04:12:02.476Z,101283.19
2022-07-29T04:14:33.132Z,101278.84
2022-07-29T04:17:04.855Z,101279.72
2022-07-29T04:19:32.546Z,101275.13
2022-07-29T04:22:00.769Z,101281.44
2022-07-29T04:24:27.876Z,101266.13
2022-07-29T04:26:54.884Z,101274.28
2022-07-29T04:29:21.692Z,101266.13
2022-07-29T04:31:48.575Z,101272.53
2022-07-29T04:34:15.766Z,101273.06
2022-07-29T04:36:42.784Z,101262.16
2022-07-29T04:39:09.536Z,101267.34
2022-07-29T04:41:36.511Z,101275.13
2022-07-29T04:44:06.801Z,101281.31
2022-07-29T04:46:34.586Z,101279.72
2022-07-29T04:49:01.728Z,101274.28
2022-07-29T04:51:28.590Z,101272.53
2022-07-29T04:53:55.369Z,101283.28
2022-07-29T04:56:22.219Z,101288.34
2022-07-29T04:58:49.097Z,101302.44
2022-07-29T05:01:16.006Z,101303.06
2022-07-29T05:03:43.172Z,101319.50
2022-07-29T05:06:09.965Z,101311.63
2022-07-29T05:08:36.897Z,101304.66
2022-07-29T05:11:12.120Z,101306.03
2022-07-29T05:13:45.311Z,101304.56
2022-07-29T05:16:14.129Z,101316.31
2022-07-29T05:18:41.410Z,101314.09
2022-07-29T05:21:08.267Z,101309.03
2022-07-29T05:23:35.109Z,101314.19
2022-07-29T05:26:01.910Z,101310.50
2022-07-29T05:28:28.708Z,101327.19
2022-07-29T05:30:55.562Z,101328.66
2022-07-29T05:33:35.912Z,101331.13
2022-07-29T05:36:07.869Z,101317.53
2022-07-29T05:38:36.630Z,101314.31
2022-07-29T05:41:03.901Z,101312.06
2022-07-29T05:43:30.881Z,101320.25
2022-07-29T05:45:58.030Z,101331.00
2022-07-29T05:48:25.562Z,101330.38
2022-07-29T05:50:52.545Z,101330.00
2022-07-29T05:53:20.803Z,101331.34
2022-07-29T05:55:51.729Z,101319.81
2022-07-29T05:58:19.241Z,101329.63
2022-07-29T06:00:46.651Z,101327.34
2022-07-29T06:03:13.657Z,101333.28
2022-07-29T06:05:40.414Z,101333.03
2022-07-29T06:08:08.177Z,101331.28
2022-07-29T06:10:38.706Z,101332.81
2022-07-29T06:13:05.637Z,101332.53
2022-07-29T06:15:32.693Z,101332.31
2022-07-29T06:18:01.288Z,101333.16
2022-07-29T06:20:32.858Z,101335.50
2022-07-29T06:23:00.535Z,101327.81
2022-07-29T06:25:30.384Z,101338.09
2022-07-29T06:27:58.211Z,101336.97
2022-07-29T06:30:25.316Z,101330.00
2022-07-29T06:32:52.189Z,101327.66
2022-07-29T06:35:38.840Z,101333.69
2022-07-29T06:38:09.605Z,101331.69
2022-07-29T06:41:01.761Z,101334.91
2022-07-29T06:43:52.236Z,101334.38
2022-07-29T06:46:23.026Z,101337.28
2022-07-29T06:48:50.881Z,101336.78
2022-07-29T06:51:22.542Z,101335.97
2022-07-29T06:53:58.098Z,101340.88
2022-07-29T06:56:26.206Z,101332.19
2022-07-29T06:58:53.245Z,101332.63
2022-07-29T07:01:20.945Z,101333.81
2022-07-29T07:03:48.815Z,101330.13
2022-07-29T07:06:15.690Z,101329.19
2022-07-29T07:08:42.555Z,101338.59
2022-07-29T07:11:09.884Z,101338.63
2022-07-29T07:13:37.014Z,101324.53
2022-07-29T07:16:05.331Z,101332.94
2022-07-29T07:18:32.223Z,101335.09
2022-07-29T07:20:59.396Z,101338.16
2022-07-29T07:23:26.427Z,101333.88
2022-07-29T07:25:53.828Z,101340.38
2022-07-29T07:28:24.479Z,101333.63
2022-07-29T07:30:52.908Z,101343.13
2022-07-29T07:33:20.736Z,101338.81
2022-07-29T07:35:48.153Z,101339.13
2022-07-29T07:38:14.983Z,101347.34
2022-07-29T07:40:42.698Z,101348.06
2022-07-29T07:43:09.547Z,101350.06
2022-07-29T07:45:38.341Z,101353.78
2022-07-29T07:48:06.128Z,101357.56
2022-07-29T07:50:33.193Z,101356.25
2022-07-29T07:53:00.399Z,101363.03
2022-07-29T07:55:27.392Z,101357.41
2022-07-29T07:57:55.886Z,101354.44
2022-07-29T08:00:23.837Z,101348.69
2022-07-29T08:02:51.707Z,101347.69
2022-07-29T08:05:19.142Z,101360.31
2022-07-29T08:07:49.032Z,101366.81
2022-07-29T08:10:36.364Z,101360.16
2022-07-29T08:13:09.227Z,101374.28
2022-07-29T08:15:36.334Z,101372.00
2022-07-29T08:18:08.508Z,101371.44
2022-07-29T08:20:37.379Z,101377.75
2022-07-29T08:23:05.679Z,101375.75
2022-07-29T08:25:34.662Z,101376.88
2022-07-29T08:28:05.941Z,101378.47
2022-07-29T08:30:33.327Z,101373.09
2022-07-29T08:33:00.647Z,101374.19
2022-07-29T08:35:35.088Z,101373.59
2022-07-29T08:38:04.306Z,101373.81
2022-07-29T08:40:32.675Z,101375.34
2022-07-29T08:43:06.979Z,101380.56
2022-07-29T08:45:48.113Z,101373.72
2022-07-29T08:48:23.057Z,101370.28
2022-07-29T08:50:55.550Z,101364.09
2022-07-29T08:53:25.281Z,101369.44
2022-07-29T08:55:52.012Z,101368.91
2022-07-29T08:58:22.942Z,101370.59
2022-07-29T09:00:55.579Z,101366.66
2022-07-29T09:03:28.244Z,101373.00
2022-07-29T09:05:55.488Z,101365.75
2022-07-29T09:08:22.841Z,101366.81
2022-07-29T09:10:50.234Z,101365.78
2022-07-29T09:13:17.033Z,101359.06
2022-07-29T09:15:43.780Z,101358.19
2022-07-29T09:18:30.229Z,101359.00
2022-07-29T09:21:16.634Z,101354.84
2022-07-29T09:24:12.346Z,101358.44
2022-07-29T09:26:47.397Z,101355.50
2022-07-29T09:29:17.728Z,101363.28
2022-07-29T09:31:51.153Z,101360.97
2022-07-29T09:34:31.143Z,101363.81
2022-07-29T09:36:58.443Z,101361.72
2022-07-29T09:39:46.788Z,101371.31
2022-07-29T09:42:16.822Z,101371.00
2022-07-29T09:44:51.593Z,101368.19
2022-07-29T09:47:20.084Z,101371.69
2022-07-29T09:49:59.040Z,101368.72
2022-07-29T09:52:33.962Z,101374.47
2022-07-29T09:55:17.900Z,101375.34
2022-07-29T09:57:46.603Z,101374.44
2022-07-29T10:00:20.102Z,101371.91
2022-07-29T10:02:48.475Z,101376.59
2022-07-29T10:05:36.110Z,101373.63
2022-07-29T10:08:03.318Z,101381.09
2022-07-29T10:10:38.946Z,101376.63
2022-07-29T10:13:13.575Z,101376.81
2022-07-29T10:15:46.735Z,101374.22
2022-07-29T10:18:18.091Z,101369.38
2022-07-29T10:20:45.242Z,101374.13
2022-07-29T10:23:13.593Z,101373.25
2022-07-29T10:25:45.942Z,101363.53
2022-07-29T10:28:16.587Z,101368.50
2022-07-29T10:30:46.647Z,101364.38
2022-07-29T10:33:52.449Z,101359.25
2022-07-29T10:36:46.420Z,101362.28
2022-07-29T10:39:49.683Z,101355.06
2022-07-29T10:42:29.727Z,101370.50
2022-07-29T10:45:04.796Z,101351.03
2022-07-29T10:47:32.195Z,101355.06
2022-07-29T10:50:05.678Z,101358.13
2022-07-29T10:52:50.571Z,101350.00
2022-07-29T10:55:43.089Z,101357.97
2022-07-29T10:58:20.474Z,101363.00
2022-07-29T11:00:57.521Z,101358.28
2022-07-29T11:03:52.232Z,101361.50
2022-07-29T11:06:28.117Z,101363.78
2022-07-29T11:09:25.910Z,101368.22
2022-07-29T11:12:25.054Z,101369.63
2022-07-29T11:14:55.686Z,101357.75
2022-07-29T11:17:23.438Z,101356.97
2022-07-29T11:19:52.660Z,101359.19
2022-07-29T11:22:43.169Z,101358.38
2022-07-29T11:25:17.539Z,101352.06
2022-07-29T11:27:45.994Z,101351.94
2022-07-29T11:30:13.395Z,101353.75
2022-07-29T11:32:48.642Z,101358.56
2022-07-29T11:35:37.073Z,101352.19
2022-07-29T11:38:29.276Z,101360.06
2022-07-29T11:41:25.412Z,101352.69
2022-07-29T11:43:55.941Z,101353.47
2022-07-29T11:46:49.886Z,101355.97
2022-07-29T11:49:32.158Z,101353.91
2022-07-29T11:52:04.145Z,101358.81
2022-07-29T11:54:57.445Z,101345.78
2022-07-29T11:57:22.899Z,101345.13
2022-07-29T12:00:10.031Z,101359.47
2022-07-29T12:02:48.040Z,101348.78
2022-07-29T12:05:22.288Z,101363.94
2022-07-29T12:08:20.013Z,101359.44
2022-07-29T12:10:50.298Z,101356.22
2022-07-29T12:13:20.565Z,101359.72
2022-07-29T12:16:01.464Z,101348.81
2022-07-29T12:18:29.317Z,101365.44
2022-07-29T12:21:06.826Z,101358.53
2022-07-29T12:23:35.450Z,101350.09
2022-07-29T12:26:07.682Z,101357.53
2022-07-29T12:28:39.821Z,101355.31
2022-07-29T12:31:13.847Z,101360.06
2022-07-29T12:33:41.013Z,101359.34
2022-07-29T12:36:17.135Z,101349.66
2022-07-29T12:38:45.606Z,101342.97
2022-07-29T12:41:13.804Z,101348.56
2022-07-29T12:43:54.523Z,101340.41
2022-07-29T12:46:21.557Z,101342.81
2022-07-29T12:48:57.581Z,101346.88
2022-07-29T12:51:37.681Z,101346.19
2022-07-29T12:54:15.710Z,101346.75
2022-07-29T12:56:45.626Z,101343.56
2022-07-29T12:59:20.162Z,101337.38
2022-07-29T13:01:50.226Z,101334.34
2022-07-29T13:04:33.029Z,101342.09
2022-07-29T13:07:10.608Z,101332.09
2022-07-29T13:10:12.701Z,101344.41
2022-07-29T13:12:40.306Z,101337.06
2022-07-29T13:15:15.783Z,101328.38
2022-07-29T13:17:47.998Z,101336.38
2022-07-29T13:20:15.201Z,101347.03
2022-07-29T13:22:43.355Z,101339.59
2022-07-29T13:25:10.906Z,101342.72
2022-07-29T13:27:45.490Z,101343.69
2022-07-29T13:30:12.956Z,101333.19
2022-07-29T13:32:39.811Z,101338.88
2022-07-29T13:35:09.319Z,101346.38
2022-07-29T13:37:39.388Z,101341.91
2022-07-29T13:40:09.504Z,101337.59
2022-07-29T13:42:36.764Z,101336.16
2022-07-29T13:45:05.469Z,101338.50
2022-07-29T13:47:33.283Z,101336.88
2022-07-29T13:50:07.157Z,101332.63
2022-07-29T13:52:35.066Z,101336.81
2022-07-29T13:55:03.326Z,101334.56
2022-07-29T13:57:30.569Z,101332.81
2022-07-29T13:59:58.131Z,101338.81
2022-07-29T14:02:26.210Z,101330.50
2022-07-29T14:04:55.046Z,101331.94
2022-07-29T14:07:23.464Z,101332.66
2022-07-29T14:09:51.053Z,101333.03
2022-07-29T14:12:17.941Z,101328.31
2022-07-29T14:14:44.737Z,101334.75
2022-07-29T14:17:14.977Z,101323.72
2022-07-29T14:19:42.393Z,101326.94
2022-07-29T14:22:10.909Z,101337.97
2022-07-29T14:24:39.050Z,101336.56
2022-07-29T14:27:08.669Z,101336.56
2022-07-29T14:29:37.189Z,101324.88
2022-07-29T14:32:11.180Z,101335.94
2022-07-29T14:34:38.947Z,101329.25
2022-07-29T14:37:07.076Z,101329.78
2022-07-29T14:39:42.627Z,101338.25
2022-07-29T14:42:12.454Z,101329.50
2022-07-29T14:44:42.424Z,101329.53
2022-07-29T14:47:09.966Z,101323.44
2022-07-29T14:49:36.882Z,101322.66
2022-07-29T14:52:04.387Z,101320.69
2022-07-29T14:54:31.154Z,101318.38
2022-07-29T14:56:58.457Z,101319.72
2022-07-29T14:59:27.074Z,101330.91
2022-07-29T15:01:54.398Z,101328.47
2022-07-29T15:04:21.358Z,101329.94
2022-07-29T15:06:48.830Z,101321.63
2022-07-29T15:09:15.633Z,101329.63
2022-07-29T15:11:42.520Z,101320.28
2022-07-29T15:14:09.347Z,101323.59
2022-07-29T15:16:38.388Z,101331.88
2022-07-29T15:19:05.790Z,101325.53
2022-07-29T15:21:33.084Z,101322.31
2022-07-29T15:23:59.898Z,101320.78
2022-07-29T15:26:27.275Z,101328.28
2022-07-29T15:28:54.284Z,101324.13
2022-07-29T15:31:21.088Z,101327.78
2022-07-29T15:33:47.973Z,101324.50
2022-07-29T15:36:35.629Z,101330.09
2022-07-29T15:39:02.241Z,101329.22
2022-07-29T15:41:29.052Z,101325.59
2022-07-29T15:43:55.872Z,101325.53
2022-07-29T15:46:41.043Z,101324.75
2022-07-29T15:49:08.635Z,101323.97
2022-07-29T15:51:35.930Z,101323.38
2022-07-29T15:54:04.550Z,101328.09
2022-07-29T15:56:32.269Z,101334.16
2022-07-29T15:58:59.543Z,101325.63
2022-07-29T16:01:28.365Z,101324.31
2022-07-29T16:03:55.339Z,101328.47
2022-07-29T16:06:22.379Z,101327.78
2022-07-29T16:08:49.260Z,101325.25
2022-07-29T16:11:16.098Z,101329.47
2022-07-29T16:13:42.864Z,101328.31
2022-07-29T16:16:10.467Z,101330.59
2022-07-29T16:18:37.409Z,101328.50
2022-07-29T16:21:04.242Z,101325.00
2022-07-29T16:23:30.988Z,101323.94
2022-07-29T16:26:00.245Z,101332.97
2022-07-29T16:28:30.293Z,101332.50
2022-07-29T16:30:57.553Z,101330.31
2022-07-29T16:33:25.152Z,101320.88
2022-07-29T16:35:53.130Z,101323.44
2022-07-29T16:38:20.429Z,101318.75
2022-07-29T16:40:47.177Z,101316.88
2022-07-29T16:43:14.162Z,101319.66
2022-07-29T16:45:45.798Z,101324.31
2022-07-29T16:48:18.097Z,101324.53
2022-07-29T16:50:46.276Z,101320.69
2022-07-29T16:53:13.209Z,101313.19
2022-07-29T16:55:42.396Z,101320.88
2022-07-29T16:58:11.786Z,101322.56
2022-07-29T17:00:39.381Z,101328.34
2022-07-29T17:03:06.176Z,101323.91
2022-07-29T17:05:53.631Z,101324.41
2022-07-29T17:08:20.279Z,101329.31
2022-07-29T17:10:47.553Z,101325.84
2022-07-29T17:13:14.729Z,101324.97
2022-07-29T17:15:42.997Z,101322.13
2022-07-29T17:18:12.896Z,101321.63
2022-07-29T17:20:42.164Z,101323.47
2022-07-29T17:23:09.126Z,101322.34
2022-07-29T17:25:36.086Z,101323.16
2022-07-29T17:28:02.851Z,101322.50
2022-07-29T17:30:30.129Z,101326.72
2022-07-29T17:32:56.886Z,101330.38
2022-07-29T17:35:42.244Z,101328.59
2022-07-29T17:38:09.005Z,101335.34
2022-07-29T17:40:35.830Z,101340.41
2022-07-29T17:43:04.694Z,101338.59
2022-07-29T17:45:49.803Z,101345.44
2022-07-29T17:48:18.966Z,101336.13
2022-07-29T17:50:47.267Z,101338.16
2022-07-29T17:53:16.302Z,101343.66
2022-07-29T17:55:48.626Z,101342.72
2022-07-29T17:58:16.472Z,101341.53
2022-07-29T18:00:44.312Z,101350.81
2022-07-29T18:03:11.284Z,101347.94
2022-07-29T18:05:38.139Z,101352.06
2022-07-29T18:08:05.405Z,101339.59
2022-07-29T18:10:32.504Z,101345.06
2022-07-29T18:12:59.597Z,101346.69
2022-07-29T18:15:26.518Z,101350.59
2022-07-29T18:17:57.071Z,101350.69
2022-07-29T18:20:26.395Z,101347.53
2022-07-29T18:22:53.429Z,101351.25
2022-07-29T18:25:20.649Z,101351.16
2022-07-29T18:27:47.611Z,101352.78
2022-07-29T18:30:17.531Z,101345.22
2022-07-29T18:32:54.485Z,101349.41
2022-07-29T18:35:32.419Z,101357.81
2022-07-29T18:38:02.142Z,101355.28
2022-07-29T18:40:30.181Z,101359.41
2022-07-29T18:42:56.994Z,101363.94
2022-07-29T18:45:28.673Z,101361.56
2022-07-29T18:47:56.832Z,101369.94
2022-07-29T18:50:29.611Z,101371.03
2022-07-29T18:52:58.890Z,101369.75
2022-07-29T18:55:26.975Z,101374.28
2022-07-29T18:57:56.090Z,101363.81
2022-07-29T19:00:25.970Z,101377.63
2022-07-29T19:02:53.370Z,101386.81
2022-07-29T19:05:21.172Z,101380.63
2022-07-29T19:07:48.007Z,101386.53
2022-07-29T19:10:14.857Z,101386.94
2022-07-29T19:12:42.344Z,101388.34
2022-07-29T19:15:10.682Z,101392.19
2022-07-29T19:17:38.821Z,101400.47
2022-07-29T19:20:07.748Z,101396.00
2022-07-29T19:22:34.840Z,101402.06
2022-07-29T19:25:01.663Z,101417.03
2022-07-29T19:27:28.473Z,101413.63
2022-07-29T19:29:58.982Z,101421.03
2022-07-29T19:32:26.562Z,101421.91
2022-07-29T19:35:12.351Z,101423.94
2022-07-29T19:37:39.213Z,101422.22
2022-07-29T19:40:07.329Z,101421.19
2022-07-29T19:42:35.103Z,101427.72
2022-07-29T19:45:01.855Z,101424.59
2022-07-29T19:47:28.598Z,101426.28
2022-07-29T19:49:55.421Z,101434.53
2022-07-29T19:52:22.209Z,101434.16
2022-07-29T19:54:48.969Z,101431.78
2022-07-29T19:57:15.710Z,101429.34
2022-07-29T19:59:42.981Z,101435.19
2022-07-29T20:02:12.267Z,101443.59
2022-07-29T20:04:39.656Z,101448.56
2022-07-29T20:07:07.298Z,101442.88
2022-07-29T20:09:35.005Z,101445.09
2022-07-29T20:12:02.046Z,101446.47
2022-07-29T20:14:28.925Z,101457.78
2022-07-29T20:16:55.706Z,101449.19
2022-07-29T20:19:22.545Z,101458.78
2022-07-29T20:21:50.723Z,101455.66
2022-07-29T20:24:19.373Z,101448.78
2022-07-29T20:26:46.801Z,101459.25
2022-07-29T20:29:13.817Z,101464.19
2022-07-29T20:31:43.154Z,101463.66
2022-07-29T20:34:10.350Z,101459.34
2022-07-29T20:36:37.613Z,101459.69
2022-07-29T20:39:04.433Z,101457.22
2022-07-29T20:41:31.832Z,101461.47
2022-07-29T20:43:59.858Z,101455.75
2022-07-29T20:46:26.831Z,101467.09
2022-07-29T20:48:53.906Z,101466.03
2022-07-29T20:51:21.137Z,101464.94
2022-07-29T20:53:49.137Z,101464.84
2022-07-29T20:56:15.915Z,101459.63
2022-07-29T20:58:42.771Z,101460.59
2022-07-29T21:01:09.979Z,101467.03
2022-07-29T21:03:37.489Z,101470.72
2022-07-29T21:06:04.437Z,101469.91
2022-07-29T21:08:32.041Z,101477.38
2022-07-29T21:10:58.827Z,101476.25
2022-07-29T21:13:25.614Z,101480.63
2022-07-29T21:15:56.252Z,101480.72
2022-07-29T21:18:34.346Z,101485.38
2022-07-29T21:21:01.305Z,101479.97
2022-07-29T21:23:28.426Z,101488.06
2022-07-29T21:25:55.700Z,101490.41
2022-07-29T21:28:26.500Z,101487.97
2022-07-29T21:30:56.379Z,101480.06
2022-07-29T21:33:24.941Z,101482.09
2022-07-29T21:36:20.193Z,101489.59
2022-07-29T21:38:39.822Z,101482.38
2022-07-29T21:41:07.271Z,101475.19
2022-07-29T21:43:34.156Z,101478.94
2022-07-29T21:46:01.139Z,101472.00
2022-07-29T21:48:29.067Z,101473.19
2022-07-29T21:50:56.470Z,101479.66
2022-07-29T21:53:24.951Z,101476.34
2022-07-29T21:55:54.338Z,101473.03
2022-07-29T21:58:22.933Z,101471.91
2022-07-29T22:00:49.850Z,101474.38
2022-07-29T22:03:17.134Z,101468.50
2022-07-29T22:05:44.671Z,101472.41
2022-07-29T22:08:11.724Z,101471.84
2022-07-29T22:10:38.638Z,101467.66
2022-07-29T22:13:05.496Z,101472.72
2022-07-29T22:15:32.321Z,101477.63
2022-07-29T22:17:59.583Z,101465.41
2022-07-29T22:20:26.921Z,101468.72
2022-07-29T22:22:54.763Z,101468.03
2022-07-29T22:25:22.752Z,101465.84
2022-07-29T22:27:50.002Z,101462.72
2022-07-29T22:30:17.157Z,101465.03
2022-07-29T22:32:44.454Z,101468.19
2022-07-29T22:35:11.380Z,101468.31
2022-07-29T22:37:39.093Z,101467.59
2022-07-29T22:40:07.296Z,101470.19
2022-07-29T22:42:35.528Z,101472.47
2022-07-29T22:45:02.801Z,101476.53
2022-07-29T22:47:46.638Z,101471.34
2022-07-29T22:50:16.100Z,101475.38
2022-07-29T22:52:42.917Z,101475.66
2022-07-29T22:55:09.843Z,101474.22
2022-07-29T22:57:36.660Z,101469.88
2022-07-29T23:00:06.040Z,101483.72
2022-07-29T23:02:32.817Z,101480.25
2022-07-29T23:04:59.725Z,101474.78
2022-07-29T23:07:26.474Z,101474.50
2022-07-29T23:09:53.522Z,101473.06
2022-07-29T23:12:20.309Z,101480.81
2022-07-29T23:14:47.266Z,101479.66
2022-07-29T23:17:14.166Z,101481.94
2022-07-29T23:19:41.085Z,101478.78
2022-07-29T23:22:07.848Z,101481.22
2022-07-29T23:24:34.654Z,101485.63
2022-07-29T23:27:01.760Z,101480.75
2022-07-29T23:29:28.716Z,101475.69
2022-07-29T23:31:55.457Z,101471.38
2022-07-29T23:34:22.360Z,101472.22
2022-07-29T23:36:49.131Z,101478.97
2022-07-29T23:39:16.680Z,101482.88
2022-07-29T23:41:43.595Z,101480.63
2022-07-29T23:44:10.324Z,101483.34
2022-07-29T23:46:37.653Z,101486.03
2022-07-29T23:49:04.703Z,101477.38
2022-07-29T23:51:32.566Z,101485.97
2022-07-29T23:53:59.893Z,101487.97
2022-07-29T23:56:26.680Z,101489.13
2022-07-29T23:58:54.336Z,101481.19
